Flugplatz Düsseldorf International

Bericht für EDDL

vom 09.05. um 01:50 UTC

Wind 14 kt aus 150°

Sichtweite 10 km oder mehr

gute Sicht, keine Wolken < 5000 ft, keine CB, keine Wettererscheinungen (CAVOK)

Temperatur 13.0°C

Taupunkt 8.0°C

Luftfeuchtigkeit 72%

Luftdruck 1007 hPa

keine wesentliche Wetteränderung innerhalb den nächsten 2 Stunden zu erwarten

EDDL 090150Z 15014KT CAVOK 13/08 Q1007 NOSIG

Prognose für EDDL

vom 08.05. um 23:00 UTC

Zwischen 00:00 UTC und 06:00 UTC

Wind 12 kt aus 160°

Sichtweite 10 km oder mehr

keine signifikanten Wettererscheinungen

keine Wolken


Zwischen 10:00 UTC und 16:00 UTC zeitweise

Wind 15 kt aus 170° in Böen 25 kt


Am 10.05. zwischen 03:00 UTC und 06:00 UTC zeitweise

Wind 15 kt aus 170° in Böen 25 kt

TAF EDDL 082300Z 0900/1006 16012KT CAVOK TEMPO 0910/0916 17015G25KT TEMPO 1003/1006 17015G25KT
Impressum